createdAt,value
2023-03-23T15:58:37.089Z,16.13
2023-03-23T16:01:09.367Z,15.83
2023-03-23T16:03:44.984Z,15.79
2023-03-23T16:06:23.196Z,15.69
2023-03-23T16:08:56.630Z,15.59
2023-03-23T16:11:27.533Z,15.48
2023-03-23T16:13:57.106Z,15.43
2023-03-23T16:16:29.387Z,15.55
2023-03-23T16:18:58.734Z,15.65
2023-03-23T16:21:28.214Z,15.50
2023-03-23T16:23:59.268Z,15.18
2023-03-23T16:26:28.491Z,15.28
2023-03-23T16:29:09.921Z,15.37
2023-03-23T16:31:44.375Z,15.33
2023-03-23T16:34:13.361Z,15.24
2023-03-23T16:36:42.475Z,15.15
2023-03-23T16:39:14.035Z,15.12
2023-03-23T16:41:44.143Z,15.13
2023-03-23T16:44:13.238Z,14.98
2023-03-23T16:46:42.318Z,14.74
2023-03-23T16:49:11.586Z,14.79
2023-03-23T16:51:42.823Z,14.55
2023-03-23T16:54:13.831Z,14.59
2023-03-23T16:56:47.019Z,14.52
2023-03-23T16:59:16.144Z,14.51
2023-03-23T17:01:45.335Z,14.49
2023-03-23T17:04:16.559Z,14.28
2023-03-23T17:06:46.437Z,14.29
2023-03-23T17:09:17.768Z,14.25
2023-03-23T17:11:46.908Z,14.22
2023-03-23T17:14:16.585Z,14.18
2023-03-23T17:16:45.793Z,14.12
2023-03-23T17:19:15.806Z,14.09
2023-03-23T17:21:45.150Z,14.03
2023-03-23T17:24:14.260Z,13.88
2023-03-23T17:26:45.007Z,13.54
2023-03-23T17:29:14.109Z,13.66
2023-03-23T17:31:43.320Z,13.52
2023-03-23T17:34:12.983Z,13.35
2023-03-23T17:36:42.054Z,13.10
2023-03-23T17:39:11.421Z,13.21
2023-03-23T17:41:40.524Z,13.23
2023-03-23T17:44:11.158Z,13.20
2023-03-23T17:46:40.367Z,13.26
2023-03-23T17:49:09.630Z,13.23
2023-03-23T17:51:39.254Z,13.30
2023-03-23T17:54:09.103Z,13.30
2023-03-23T17:56:38.672Z,13.24
2023-03-23T17:59:08.153Z,13.19
2023-03-23T18:01:38.797Z,13.14
2023-03-23T18:04:08.127Z,13.17
2023-03-23T18:06:37.187Z,13.17
2023-03-23T18:09:06.480Z,13.13
2023-03-23T18:11:35.745Z,13.09
2023-03-23T18:14:05.134Z,13.00
2023-03-23T18:16:34.312Z,12.96
2023-03-23T18:19:05.503Z,12.90
2023-03-23T18:21:38.145Z,12.86
2023-03-23T18:24:09.168Z,12.75
2023-03-23T18:26:39.434Z,12.69
2023-03-23T18:29:08.782Z,12.66
2023-03-23T18:31:40.424Z,12.61
2023-03-23T18:34:11.085Z,12.57
2023-03-23T18:36:40.485Z,12.40
2023-03-23T18:39:11.043Z,12.35
2023-03-23T18:41:41.268Z,12.32
2023-03-23T18:44:10.735Z,12.21
2023-03-23T18:46:39.809Z,12.22
2023-03-23T18:49:10.469Z,12.04
2023-03-23T18:51:39.689Z,12.10
2023-03-23T18:54:08.815Z,12.07
2023-03-23T18:56:37.996Z,11.97
2023-03-23T18:59:07.782Z,11.93
2023-03-23T19:01:37.026Z,11.81
2023-03-23T19:04:07.010Z,11.76
2023-03-23T19:06:38.018Z,11.48
2023-03-23T19:09:07.457Z,11.57
2023-03-23T19:11:36.775Z,11.50
2023-03-23T19:14:05.900Z,11.37
2023-03-23T19:16:36.943Z,11.27
2023-03-23T19:19:07.824Z,11.21
2023-03-23T19:21:39.981Z,11.08
2023-03-23T19:24:10.352Z,11.02
2023-03-23T19:26:42.109Z,10.87
2023-03-23T19:31:46.768Z,10.75
2023-03-23T19:34:17.281Z,10.60
2023-03-23T19:36:54.365Z,10.50
2023-03-23T19:39:24.195Z,10.35
2023-03-23T19:41:54.379Z,10.23
2023-03-23T19:44:23.669Z,10.04
2023-03-23T19:46:52.978Z,9.99
2023-03-23T19:49:22.342Z,9.86
2023-03-23T19:52:06.518Z,9.82
2023-03-23T19:54:40.945Z,9.76
2023-03-23T19:57:11.383Z,9.74
2023-03-23T19:59:40.625Z,9.78
2023-03-23T20:02:12.985Z,9.71
2023-03-23T20:04:43.712Z,9.64
2023-03-23T20:07:15.622Z,9.82
2023-03-23T20:09:45.550Z,9.79
2023-03-23T20:12:14.666Z,9.65
2023-03-23T20:14:45.578Z,9.77
2023-03-23T20:17:14.949Z,9.86
2023-03-23T20:19:44.571Z,9.84
2023-03-23T20:22:15.750Z,9.87
2023-03-23T20:24:48.270Z,9.89
2023-03-23T20:27:18.400Z,9.87
2023-03-23T20:29:47.452Z,9.81
2023-03-23T20:32:16.628Z,9.73
2023-03-23T20:34:49.789Z,9.71
2023-03-23T20:37:21.061Z,9.62
2023-03-23T20:39:50.884Z,9.57
2023-03-23T20:42:20.029Z,9.56
2023-03-23T20:44:49.150Z,9.48
2023-03-23T20:47:18.148Z,9.39
2023-03-23T20:49:53.127Z,9.37
2023-03-23T20:52:26.214Z,9.30
2023-03-23T20:54:56.112Z,9.18
2023-03-23T20:57:25.650Z,9.05
2023-03-23T20:59:55.788Z,9.06
2023-03-23T21:02:26.175Z,8.97
2023-03-23T21:04:55.381Z,8.93
2023-03-23T21:07:27.664Z,8.93
2023-03-23T21:09:56.802Z,8.92
2023-03-23T21:12:25.827Z,8.83
2023-03-23T21:14:54.998Z,8.62
2023-03-23T21:17:24.059Z,8.60
2023-03-23T21:19:53.405Z,8.59
2023-03-23T21:22:23.072Z,8.47
2023-03-23T21:24:54.133Z,8.46
2023-03-23T21:27:23.243Z,8.35
2023-03-23T21:29:52.267Z,8.31
2023-03-23T21:32:21.379Z,8.17
2023-03-23T21:34:50.484Z,8.09
2023-03-23T21:37:19.722Z,7.97
2023-03-23T21:39:48.970Z,7.95
2023-03-23T21:42:19.472Z,7.84
2023-03-23T21:44:49.015Z,7.79
2023-03-23T21:47:18.396Z,7.77
2023-03-23T21:49:47.375Z,7.79
2023-03-23T21:52:16.574Z,7.79
2023-03-23T21:54:45.851Z,7.76
2023-03-23T21:57:14.875Z,7.77
2023-03-23T21:59:45.565Z,7.85
2023-03-23T22:02:16.113Z,7.87
2023-03-23T22:05:03.710Z,7.85
2023-03-23T22:07:51.313Z,7.89
2023-03-23T22:10:21.187Z,7.95
2023-03-23T22:12:53.753Z,7.87
2023-03-23T22:15:28.143Z,7.86
2023-03-23T22:17:57.278Z,7.89
2023-03-23T22:20:26.943Z,7.88
2023-03-23T22:22:56.359Z,7.90
2023-03-23T22:25:25.732Z,7.91
2023-03-23T22:27:55.631Z,7.87
2023-03-23T22:30:29.960Z,7.98
2023-03-23T22:32:59.085Z,8.00
2023-03-23T22:35:29.038Z,8.00
2023-03-23T22:37:58.275Z,8.06
2023-03-23T22:40:27.420Z,8.07
2023-03-23T22:42:57.119Z,7.94
2023-03-23T22:45:28.310Z,7.91
2023-03-23T22:48:00.691Z,7.69
2023-03-23T22:50:29.896Z,7.71
2023-03-23T22:52:59.006Z,7.53
2023-03-23T22:55:28.479Z,7.53
2023-03-23T22:58:00.645Z,7.54
2023-03-23T23:00:31.240Z,7.51
2023-03-23T23:03:00.954Z,7.46
2023-03-23T23:05:30.860Z,7.44
2023-03-23T23:08:03.644Z,7.45
2023-03-23T23:10:36.488Z,7.35
2023-03-23T23:13:05.610Z,7.28
2023-03-23T23:15:37.091Z,7.24
2023-03-23T23:18:06.762Z,7.26
2023-03-23T23:20:37.461Z,7.27
2023-03-23T23:23:06.926Z,7.31
2023-03-23T23:25:36.684Z,7.31
2023-03-23T23:28:07.142Z,7.29
2023-03-23T23:30:38.083Z,7.37
2023-03-23T23:33:07.733Z,7.41
2023-03-23T23:35:37.299Z,7.45
2023-03-23T23:38:06.942Z,7.45
2023-03-23T23:40:39.456Z,7.41
2023-03-23T23:43:10.339Z,7.39
2023-03-23T23:45:42.136Z,7.37
2023-03-23T23:48:11.671Z,7.33
2023-03-23T23:50:40.885Z,7.23
2023-03-23T23:53:11.285Z,7.25
2023-03-23T23:55:41.116Z,7.17
2023-03-23T23:58:10.260Z,7.14
